sensor_id;sensor_type;location;lat;lon;timestamp;pressure;altitude;pressure_sealevel;temperature;humidity
19811;BME280;10065;49.632;8.346;2022-07-23T00:00:33;100478.31;;;26.06;50.21
19811;BME280;10065;49.632;8.346;2022-07-23T00:03:05;100485.63;;;26.05;50.03
19811;BME280;10065;49.632;8.346;2022-07-23T00:05:33;100484.25;;;26.03;50.11
19811;BME280;10065;49.632;8.346;2022-07-23T00:08:03;100485.13;;;26.25;49.84
19811;BME280;10065;49.632;8.346;2022-07-23T00:10:38;100479.91;;;26.02;50.26
19811;BME280;10065;49.632;8.346;2022-07-23T00:13:06;100483.03;;;25.94;50.77
19811;BME280;10065;49.632;8.346;2022-07-23T00:15:33;100471.91;;;25.95;50.98
19811;BME280;10065;49.632;8.346;2022-07-23T00:18:01;100459.91;;;25.91;51.30
19811;BME280;10065;49.632;8.346;2022-07-23T00:20:29;100443.25;;;25.88;51.63
19811;BME280;10065;49.632;8.346;2022-07-23T00:22:57;100434.56;;;25.85;51.67
19811;BME280;10065;49.632;8.346;2022-07-23T00:25:26;100413.06;;;25.84;51.67
19811;BME280;10065;49.632;8.346;2022-07-23T00:27:58;100409.53;;;25.83;52.21
19811;BME280;10065;49.632;8.346;2022-07-23T00:30:28;100403.47;;;25.76;52.54
19811;BME280;10065;49.632;8.346;2022-07-23T00:32:59;100408.50;;;25.68;52.94
19811;BME280;10065;49.632;8.346;2022-07-23T00:35:28;100412.00;;;25.52;53.06
19811;BME280;10065;49.632;8.346;2022-07-23T00:37:57;100411.69;;;25.48;52.90
19811;BME280;10065;49.632;8.346;2022-07-23T00:40:25;100416.59;;;25.51;52.74
19811;BME280;10065;49.632;8.346;2022-07-23T00:42:53;100425.66;;;25.57;52.39
19811;BME280;10065;49.632;8.346;2022-07-23T00:45:23;100437.44;;;25.62;51.95
19811;BME280;10065;49.632;8.346;2022-07-23T00:47:50;100444.53;;;25.63;52.01
19811;BME280;10065;49.632;8.346;2022-07-23T00:50:18;100454.81;;;25.61;52.24
19811;BME280;10065;49.632;8.346;2022-07-23T00:52:46;100478.41;;;25.61;52.23
19811;BME280;10065;49.632;8.346;2022-07-23T00:55:14;100474.78;;;25.55;52.37
19811;BME280;10065;49.632;8.346;2022-07-23T00:57:42;100481.19;;;25.49;52.53
19811;BME280;10065;49.632;8.346;2022-07-23T01:00:12;100471.31;;;25.43;52.59
19811;BME280;10065;49.632;8.346;2022-07-23T01:02:42;100471.56;;;25.41;52.46
19811;BME280;10065;49.632;8.346;2022-07-23T01:05:09;100468.50;;;25.38;52.44
19811;BME280;10065;49.632;8.346;2022-07-23T01:07:37;100450.00;;;25.35;52.75
19811;BME280;10065;49.632;8.346;2022-07-23T01:10:06;100447.88;;;25.37;52.73
19811;BME280;10065;49.632;8.346;2022-07-23T01:12:55;100425.00;;;25.33;53.00
19811;BME280;10065;49.632;8.346;2022-07-23T01:15:24;100439.06;;;25.30;53.04
19811;BME280;10065;49.632;8.346;2022-07-23T01:17:53;100439.31;;;25.28;53.19
19811;BME280;10065;49.632;8.346;2022-07-23T01:20:21;100450.63;;;25.25;53.36
19811;BME280;10065;49.632;8.346;2022-07-23T01:22:50;100454.34;;;25.19;53.62
19811;BME280;10065;49.632;8.346;2022-07-23T01:25:19;100434.88;;;25.22;53.38
19811;BME280;10065;49.632;8.346;2022-07-23T01:27:47;100403.59;;;25.20;53.66
19811;BME280;10065;49.632;8.346;2022-07-23T01:30:15;100401.78;;;25.08;53.91
19811;BME280;10065;49.632;8.346;2022-07-23T01:32:43;100434.84;;;25.05;54.59
19811;BME280;10065;49.632;8.346;2022-07-23T01:35:11;100447.00;;;25.03;55.54
19811;BME280;10065;49.632;8.346;2022-07-23T01:37:39;100441.56;;;25.03;56.35
19811;BME280;10065;49.632;8.346;2022-07-23T01:40:08;100451.59;;;25.02;56.28
19811;BME280;10065;49.632;8.346;2022-07-23T01:42:36;100455.63;;;25.00;56.81
19811;BME280;10065;49.632;8.346;2022-07-23T01:45:05;100470.00;;;25.00;56.72
19811;BME280;10065;49.632;8.346;2022-07-23T01:47:33;100465.41;;;25.01;56.77
19811;BME280;10065;49.632;8.346;2022-07-23T01:50:01;100458.09;;;25.01;56.61
19811;BME280;10065;49.632;8.346;2022-07-23T01:52:29;100458.56;;;24.98;56.65
19811;BME280;10065;49.632;8.346;2022-07-23T01:54:56;100466.97;;;24.97;56.78
19811;BME280;10065;49.632;8.346;2022-07-23T01:57:26;100466.69;;;24.98;56.91
19811;BME280;10065;49.632;8.346;2022-07-23T01:59:54;100475.56;;;24.94;56.95
19811;BME280;10065;49.632;8.346;2022-07-23T02:02:21;100456.59;;;24.94;57.00
19811;BME280;10065;49.632;8.346;2022-07-23T02:04:49;100451.84;;;24.89;57.10
19811;BME280;10065;49.632;8.346;2022-07-23T02:07:17;100454.47;;;24.84;57.10
19811;BME280;10065;49.632;8.346;2022-07-23T02:09:45;100456.13;;;24.85;56.93
19811;BME280;10065;49.632;8.346;2022-07-23T02:12:12;100446.94;;;24.86;56.77
19811;BME280;10065;49.632;8.346;2022-07-23T02:14:41;100455.53;;;24.83;56.78
19811;BME280;10065;49.632;8.346;2022-07-23T02:17:09;100447.91;;;24.80;56.66
19811;BME280;10065;49.632;8.346;2022-07-23T02:19:37;100455.22;;;24.80;56.78
19811;BME280;10065;49.632;8.346;2022-07-23T02:22:05;100442.47;;;24.80;56.84
19811;BME280;10065;49.632;8.346;2022-07-23T02:24:32;100427.84;;;24.81;56.75
19811;BME280;10065;49.632;8.346;2022-07-23T02:27:00;100423.75;;;24.79;57.00
19811;BME280;10065;49.632;8.346;2022-07-23T02:29:28;100419.53;;;24.71;57.19
19811;BME280;10065;49.632;8.346;2022-07-23T02:31:57;100419.53;;;24.71;57.12
19811;BME280;10065;49.632;8.346;2022-07-23T02:34:25;100410.56;;;24.70;57.17
19811;BME280;10065;49.632;8.346;2022-07-23T02:36:53;100407.06;;;24.58;57.87
19811;BME280;10065;49.632;8.346;2022-07-23T02:39:20;100416.41;;;24.51;58.16
19811;BME280;10065;49.632;8.346;2022-07-23T02:41:48;100429.72;;;24.52;57.94
19811;BME280;10065;49.632;8.346;2022-07-23T02:44:16;100447.88;;;24.52;57.95
19811;BME280;10065;49.632;8.346;2022-07-23T02:46:44;100463.63;;;24.55;58.08
19811;BME280;10065;49.632;8.346;2022-07-23T02:49:13;100459.31;;;24.54;58.06
19811;BME280;10065;49.632;8.346;2022-07-23T02:51:41;100474.47;;;24.55;58.40
19811;BME280;10065;49.632;8.346;2022-07-23T02:54:08;100477.19;;;24.55;58.02
19811;BME280;10065;49.632;8.346;2022-07-23T02:56:36;100477.69;;;24.52;57.96
19811;BME280;10065;49.632;8.346;2022-07-23T02:59:04;100476.63;;;24.53;58.22
19811;BME280;10065;49.632;8.346;2022-07-23T03:01:32;100477.56;;;24.47;58.63
19811;BME280;10065;49.632;8.346;2022-07-23T03:03:59;100489.13;;;24.42;58.68
19811;BME280;10065;49.632;8.346;2022-07-23T03:06:29;100487.03;;;24.44;58.53
19811;BME280;10065;49.632;8.346;2022-07-23T03:08:56;100492.78;;;24.48;58.75
19811;BME280;10065;49.632;8.346;2022-07-23T03:11:24;100500.81;;;24.43;58.67
19811;BME280;10065;49.632;8.346;2022-07-23T03:13:52;100503.75;;;24.41;58.44
19811;BME280;10065;49.632;8.346;2022-07-23T03:16:22;100502.94;;;24.41;58.46
19811;BME280;10065;49.632;8.346;2022-07-23T03:18:50;100510.00;;;24.42;58.25
19811;BME280;10065;49.632;8.346;2022-07-23T03:21:18;100505.03;;;24.38;58.48
19811;BME280;10065;49.632;8.346;2022-07-23T03:23:47;100517.19;;;24.36;58.63
19811;BME280;10065;49.632;8.346;2022-07-23T03:26:15;100507.66;;;24.33;58.78
19811;BME280;10065;49.632;8.346;2022-07-23T03:28:43;100510.00;;;24.30;58.87
19811;BME280;10065;49.632;8.346;2022-07-23T03:31:10;100516.84;;;24.32;59.06
19811;BME280;10065;49.632;8.346;2022-07-23T03:33:38;100515.19;;;24.31;59.11
19811;BME280;10065;49.632;8.346;2022-07-23T03:36:07;100521.19;;;24.33;59.16
19811;BME280;10065;49.632;8.346;2022-07-23T03:38:35;100517.91;;;24.31;59.52
19811;BME280;10065;49.632;8.346;2022-07-23T03:41:04;100515.09;;;24.26;59.71
19811;BME280;10065;49.632;8.346;2022-07-23T03:43:33;100518.63;;;24.27;60.11
19811;BME280;10065;49.632;8.346;2022-07-23T03:46:01;100513.28;;;24.20;60.73
19811;BME280;10065;49.632;8.346;2022-07-23T03:48:28;100500.78;;;24.19;60.92
19811;BME280;10065;49.632;8.346;2022-07-23T03:50:56;100499.94;;;24.19;61.63
19811;BME280;10065;49.632;8.346;2022-07-23T03:53:24;100495.72;;;24.11;62.52
19811;BME280;10065;49.632;8.346;2022-07-23T03:55:52;100506.00;;;24.09;63.20
19811;BME280;10065;49.632;8.346;2022-07-23T03:58:21;100506.00;;;24.09;63.28
19811;BME280;10065;49.632;8.346;2022-07-23T04:00:49;100507.63;;;24.10;63.47
19811;BME280;10065;49.632;8.346;2022-07-23T04:03:17;100511.88;;;24.06;63.29
19811;BME280;10065;49.632;8.346;2022-07-23T04:05:44;100506.09;;;24.02;63.31
19811;BME280;10065;49.632;8.346;2022-07-23T04:08:12;100515.53;;;24.00;63.29
19811;BME280;10065;49.632;8.346;2022-07-23T04:10:40;100526.81;;;23.97;63.48
19811;BME280;10065;49.632;8.346;2022-07-23T04:15:36;100535.06;;;23.90;63.87
19811;BME280;10065;49.632;8.346;2022-07-23T04:18:05;100542.59;;;23.88;64.07
19811;BME280;10065;49.632;8.346;2022-07-23T04:20:32;100556.97;;;23.89;63.83
19811;BME280;10065;49.632;8.346;2022-07-23T04:23:06;100565.09;;;23.89;64.23
19811;BME280;10065;49.632;8.346;2022-07-23T04:25:34;100564.25;;;23.88;63.92
19811;BME280;10065;49.632;8.346;2022-07-23T04:28:02;100573.44;;;23.87;63.89
19811;BME280;10065;49.632;8.346;2022-07-23T04:30:30;100592.38;;;23.87;64.18
19811;BME280;10065;49.632;8.346;2022-07-23T04:32:59;100609.47;;;23.88;64.23
19811;BME280;10065;49.632;8.346;2022-07-23T04:35:26;100608.03;;;23.85;64.86
19811;BME280;10065;49.632;8.346;2022-07-23T04:37:54;100606.03;;;23.81;65.06
19811;BME280;10065;49.632;8.346;2022-07-23T04:40:22;100584.38;;;23.81;65.82
19811;BME280;10065;49.632;8.346;2022-07-23T04:42:50;100551.16;;;23.74;68.32
19811;BME280;10065;49.632;8.346;2022-07-23T04:45:18;100554.41;;;23.52;70.73
19811;BME280;10065;49.632;8.346;2022-07-23T04:47:47;100570.94;;;23.44;70.97
19811;BME280;10065;49.632;8.346;2022-07-23T04:50:16;100584.56;;;23.38;70.71
19811;BME280;10065;49.632;8.346;2022-07-23T04:52:48;100583.72;;;23.37;71.61
19811;BME280;10065;49.632;8.346;2022-07-23T04:55:16;100583.34;;;23.34;72.26
19811;BME280;10065;49.632;8.346;2022-07-23T04:57:44;100596.38;;;23.25;75.25
19811;BME280;10065;49.632;8.346;2022-07-23T05:00:12;100599.53;;;23.22;75.41
19811;BME280;10065;49.632;8.346;2022-07-23T05:02:40;100606.00;;;23.21;74.50
19811;BME280;10065;49.632;8.346;2022-07-23T05:05:08;100623.41;;;23.25;73.73
19811;BME280;10065;49.632;8.346;2022-07-23T05:07:37;100640.41;;;23.32;72.86
19811;BME280;10065;49.632;8.346;2022-07-23T05:10:05;100647.34;;;23.28;73.27
19811;BME280;10065;49.632;8.346;2022-07-23T05:12:33;100650.78;;;23.35;73.48
19811;BME280;10065;49.632;8.346;2022-07-23T05:15:01;100661.97;;;23.39;73.46
19811;BME280;10065;49.632;8.346;2022-07-23T05:17:29;100669.63;;;23.42;73.75
19811;BME280;10065;49.632;8.346;2022-07-23T05:19:56;100658.44;;;23.38;73.44
19811;BME280;10065;49.632;8.346;2022-07-23T05:22:26;100651.09;;;23.27;73.96
19811;BME280;10065;49.632;8.346;2022-07-23T05:24:56;100651.69;;;23.29;73.30
19811;BME280;10065;49.632;8.346;2022-07-23T05:27:23;100634.69;;;23.22;74.79
19811;BME280;10065;49.632;8.346;2022-07-23T05:29:51;100635.09;;;23.07;77.03
19811;BME280;10065;49.632;8.346;2022-07-23T05:32:19;100625.41;;;23.00;78.31
19811;BME280;10065;49.632;8.346;2022-07-23T05:34:46;100616.69;;;22.98;78.40
19811;BME280;10065;49.632;8.346;2022-07-23T05:37:14;100618.94;;;23.01;77.88
19811;BME280;10065;49.632;8.346;2022-07-23T05:39:42;100619.91;;;23.06;76.92
19811;BME280;10065;49.632;8.346;2022-07-23T05:42:11;100618.03;;;23.07;75.96
19811;BME280;10065;49.632;8.346;2022-07-23T05:44:39;100623.44;;;23.07;75.85
19811;BME280;10065;49.632;8.346;2022-07-23T05:47:06;100617.38;;;23.11;75.87
19811;BME280;10065;49.632;8.346;2022-07-23T05:49:37;100614.69;;;23.23;75.63
19811;BME280;10065;49.632;8.346;2022-07-23T05:52:06;100613.44;;;23.25;75.92
19811;BME280;10065;49.632;8.346;2022-07-23T05:54:34;100614.69;;;23.23;77.41
19811;BME280;10065;49.632;8.346;2022-07-23T05:57:03;100616.00;;;23.20;77.27
19811;BME280;10065;49.632;8.346;2022-07-23T05:59:32;100608.25;;;23.24;75.97
19811;BME280;10065;49.632;8.346;2022-07-23T06:02:00;100609.44;;;23.28;75.44
19811;BME280;10065;49.632;8.346;2022-07-23T06:04:28;100607.34;;;23.30;74.58
19811;BME280;10065;49.632;8.346;2022-07-23T06:06:55;100612.91;;;23.35;73.62
19811;BME280;10065;49.632;8.346;2022-07-23T06:09:23;100607.03;;;23.38;73.55
19811;BME280;10065;49.632;8.346;2022-07-23T06:11:51;100607.75;;;23.45;72.99
19811;BME280;10065;49.632;8.346;2022-07-23T06:14:19;100618.53;;;23.52;72.84
19811;BME280;10065;49.632;8.346;2022-07-23T06:16:48;100634.00;;;23.63;72.45
19811;BME280;10065;49.632;8.346;2022-07-23T06:19:15;100629.41;;;23.63;71.37
19811;BME280;10065;49.632;8.346;2022-07-23T06:21:43;100631.63;;;23.67;70.70
19811;BME280;10065;49.632;8.346;2022-07-23T06:24:13;100641.72;;;23.59;70.26
19811;BME280;10065;49.632;8.346;2022-07-23T06:26:41;100646.00;;;23.67;70.19
19811;BME280;10065;49.632;8.346;2022-07-23T06:29:09;100640.34;;;23.69;70.18
19811;BME280;10065;49.632;8.346;2022-07-23T06:31:36;100651.34;;;23.74;70.14
19811;BME280;10065;49.632;8.346;2022-07-23T06:34:06;100642.97;;;23.75;69.64
19811;BME280;10065;49.632;8.346;2022-07-23T06:36:33;100656.75;;;23.74;69.87
19811;BME280;10065;49.632;8.346;2022-07-23T06:39:01;100666.53;;;23.75;70.44
19811;BME280;10065;49.632;8.346;2022-07-23T06:41:31;100670.66;;;23.77;70.10
19811;BME280;10065;49.632;8.346;2022-07-23T06:43:58;100672.44;;;23.83;69.30
19811;BME280;10065;49.632;8.346;2022-07-23T06:46:26;100684.47;;;23.87;69.00
19811;BME280;10065;49.632;8.346;2022-07-23T06:48:54;100695.66;;;23.91;68.42
19811;BME280;10065;49.632;8.346;2022-07-23T06:51:23;100685.56;;;23.98;68.18
19811;BME280;10065;49.632;8.346;2022-07-23T06:53:51;100687.34;;;24.04;67.21
19811;BME280;10065;49.632;8.346;2022-07-23T06:56:19;100674.78;;;24.10;66.55
19811;BME280;10065;49.632;8.346;2022-07-23T06:58:47;100683.00;;;24.15;66.06
19811;BME280;10065;49.632;8.346;2022-07-23T07:01:15;100689.59;;;24.19;65.99
19811;BME280;10065;49.632;8.346;2022-07-23T07:03:42;100682.94;;;24.21;65.58
19811;BME280;10065;49.632;8.346;2022-07-23T07:06:10;100680.81;;;24.23;65.02
19811;BME280;10065;49.632;8.346;2022-07-23T07:08:39;100670.53;;;24.14;64.73
19811;BME280;10065;49.632;8.346;2022-07-23T07:11:09;100682.19;;;24.14;64.69
19811;BME280;10065;49.632;8.346;2022-07-23T07:13:37;100695.13;;;24.12;65.38
19811;BME280;10065;49.632;8.346;2022-07-23T07:16:08;100688.06;;;24.11;65.82
19811;BME280;10065;49.632;8.346;2022-07-23T07:18:38;100690.19;;;24.09;66.57
19811;BME280;10065;49.632;8.346;2022-07-23T07:21:06;100688.06;;;24.11;66.47
19811;BME280;10065;49.632;8.346;2022-07-23T07:23:33;100690.31;;;24.14;65.94
19811;BME280;10065;49.632;8.346;2022-07-23T07:26:03;100696.34;;;24.16;65.54
19811;BME280;10065;49.632;8.346;2022-07-23T07:28:30;100691.97;;;24.15;65.85
19811;BME280;10065;49.632;8.346;2022-07-23T07:30:58;100684.91;;;24.14;65.95
19811;BME280;10065;49.632;8.346;2022-07-23T07:33:26;100687.97;;;24.18;65.62
19811;BME280;10065;49.632;8.346;2022-07-23T07:35:54;100693.41;;;24.18;65.24
19811;BME280;10065;49.632;8.346;2022-07-23T07:38:22;100692.41;;;24.12;64.51
19811;BME280;10065;49.632;8.346;2022-07-23T07:40:50;100696.78;;;24.13;65.23
19811;BME280;10065;49.632;8.346;2022-07-23T07:43:19;100702.34;;;24.18;65.44
19811;BME280;10065;49.632;8.346;2022-07-23T07:45:47;100706.13;;;24.17;65.25
19811;BME280;10065;49.632;8.346;2022-07-23T07:48:14;100710.47;;;24.18;64.95
19811;BME280;10065;49.632;8.346;2022-07-23T07:50:42;100717.34;;;24.21;65.09
19811;BME280;10065;49.632;8.346;2022-07-23T07:53:12;100722.59;;;24.16;64.99
19811;BME280;10065;49.632;8.346;2022-07-23T07:55:39;100726.13;;;24.16;65.06
19811;BME280;10065;49.632;8.346;2022-07-23T07:58:07;100730.66;;;24.22;65.35
19811;BME280;10065;49.632;8.346;2022-07-23T08:00:37;100739.06;;;24.32;64.78
19811;BME280;10065;49.632;8.346;2022-07-23T08:03:04;100740.47;;;24.35;63.78
19811;BME280;10065;49.632;8.346;2022-07-23T08:05:32;100740.97;;;24.44;63.16
19811;BME280;10065;49.632;8.346;2022-07-23T08:08:00;100738.38;;;24.49;63.13
19811;BME280;10065;49.632;8.346;2022-07-23T08:10:28;100746.66;;;24.54;62.90
19811;BME280;10065;49.632;8.346;2022-07-23T08:12:58;100739.00;;;24.62;62.99
19811;BME280;10065;49.632;8.346;2022-07-23T08:15:28;100731.47;;;24.76;62.59
19811;BME280;10065;49.632;8.346;2022-07-23T08:17:58;100732.53;;;24.98;62.78
19811;BME280;10065;49.632;8.346;2022-07-23T08:20:26;100730.06;;;25.08;61.44
19811;BME280;10065;49.632;8.346;2022-07-23T08:22:56;100739.16;;;25.14;61.11
19811;BME280;10065;49.632;8.346;2022-07-23T08:25:26;100745.69;;;25.53;59.85
19811;BME280;10065;49.632;8.346;2022-07-23T08:27:55;100733.78;;;25.42;59.97
19811;BME280;10065;49.632;8.346;2022-07-23T08:30:23;100742.50;;;25.56;59.54
19811;BME280;10065;49.632;8.346;2022-07-23T08:32:54;100739.53;;;25.69;58.76
19811;BME280;10065;49.632;8.346;2022-07-23T08:35:25;100735.50;;;25.83;57.80
19811;BME280;10065;49.632;8.346;2022-07-23T08:37:54;100748.78;;;25.97;57.23
19811;BME280;10065;49.632;8.346;2022-07-23T08:40:22;100744.53;;;26.01;57.46
19811;BME280;10065;49.632;8.346;2022-07-23T08:42:51;100754.00;;;26.15;56.94
19811;BME280;10065;49.632;8.346;2022-07-23T08:45:20;100759.56;;;26.20;56.64
19811;BME280;10065;49.632;8.346;2022-07-23T08:47:53;100757.97;;;26.24;56.14
19811;BME280;10065;49.632;8.346;2022-07-23T08:50:23;100750.81;;;26.30;55.78
19811;BME280;10065;49.632;8.346;2022-07-23T08:52:52;100753.06;;;26.21;55.79
19811;BME280;10065;49.632;8.346;2022-07-23T08:55:22;100747.03;;;26.19;55.75
19811;BME280;10065;49.632;8.346;2022-07-23T08:57:51;100746.00;;;26.08;56.21
19811;BME280;10065;49.632;8.346;2022-07-23T09:00:20;100751.13;;;26.33;55.50
19811;BME280;10065;49.632;8.346;2022-07-23T09:02:49;100750.34;;;26.21;55.83
19811;BME280;10065;49.632;8.346;2022-07-23T09:05:18;100751.72;;;26.23;55.83
19811;BME280;10065;49.632;8.346;2022-07-23T09:08:05;100748.19;;;26.23;55.93
19811;BME280;10065;49.632;8.346;2022-07-23T09:10:48;100754.22;;;25.97;56.24
19811;BME280;10065;49.632;8.346;2022-07-23T09:13:28;100753.28;;;25.91;56.27
19811;BME280;10065;49.632;8.346;2022-07-23T09:15:59;100752.38;;;25.85;56.76
19811;BME280;10065;49.632;8.346;2022-07-23T09:18:39;100743.06;;;25.81;57.03
19811;BME280;10065;49.632;8.346;2022-07-23T09:21:13;100739.28;;;25.82;56.50
19811;BME280;10065;49.632;8.346;2022-07-23T09:23:44;100735.88;;;25.75;56.41
19811;BME280;10065;49.632;8.346;2022-07-23T09:26:21;100737.59;;;25.93;56.45
19811;BME280;10065;49.632;8.346;2022-07-23T09:28:54;100735.50;;;26.12;56.05
19811;BME280;10065;49.632;8.346;2022-07-23T09:31:23;100735.88;;;26.32;55.64
19811;BME280;10065;49.632;8.346;2022-07-23T09:33:51;100737.78;;;26.48;55.36
19811;BME280;10065;49.632;8.346;2022-07-23T09:36:33;100743.81;;;26.67;54.59
19811;BME280;10065;49.632;8.346;2022-07-23T09:39:02;100736.69;;;26.83;53.69
19811;BME280;10065;49.632;8.346;2022-07-23T09:41:35;100736.97;;;26.98;53.17
19811;BME280;10065;49.632;8.346;2022-07-23T09:44:08;100729.53;;;27.10;52.63
19811;BME280;10065;49.632;8.346;2022-07-23T09:46:37;100733.31;;;27.26;52.05
19811;BME280;10065;49.632;8.346;2022-07-23T09:49:14;100733.59;;;27.29;51.69
19811;BME280;10065;49.632;8.346;2022-07-23T09:51:48;100726.72;;;27.44;50.80
19811;BME280;10065;49.632;8.346;2022-07-23T09:54:29;100728.63;;;27.43;50.89
19811;BME280;10065;49.632;8.346;2022-07-23T09:57:01;100724.31;;;27.47;51.45
19811;BME280;10065;49.632;8.346;2022-07-23T09:59:31;100727.94;;;27.53;50.64
19811;BME280;10065;49.632;8.346;2022-07-23T10:02:01;100732.31;;;27.54;51.02
19811;BME280;10065;49.632;8.346;2022-07-23T10:04:30;100732.13;;;27.60;50.63
19811;BME280;10065;49.632;8.346;2022-07-23T10:06:59;100724.63;;;27.51;50.62
19811;BME280;10065;49.632;8.346;2022-07-23T10:09:30;100734.56;;;27.40;51.04
19811;BME280;10065;49.632;8.346;2022-07-23T10:12:00;100735.75;;;27.27;51.68
19811;BME280;10065;49.632;8.346;2022-07-23T10:14:42;100730.97;;;27.18;52.51
19811;BME280;10065;49.632;8.346;2022-07-23T10:17:09;100735.88;;;27.38;51.96
19811;BME280;10065;49.632;8.346;2022-07-23T10:19:38;100734.94;;;27.49;51.91
19811;BME280;10065;49.632;8.346;2022-07-23T10:22:08;100731.56;;;27.58;51.53
19811;BME280;10065;49.632;8.346;2022-07-23T10:24:47;100728.72;;;27.70;50.63
19811;BME280;10065;49.632;8.346;2022-07-23T10:27:37;100733.75;;;27.83;51.09
19811;BME280;10065;49.632;8.346;2022-07-23T10:30:10;100728.22;;;28.00;50.14
19811;BME280;10065;49.632;8.346;2022-07-23T10:32:45;100728.63;;;28.14;50.18
19811;BME280;10065;49.632;8.346;2022-07-23T10:35:27;100729.88;;;28.28;48.93
19811;BME280;10065;49.632;8.346;2022-07-23T10:38:02;100716.44;;;28.48;48.95
19811;BME280;10065;49.632;8.346;2022-07-23T10:40:32;100721.69;;;28.60;48.89
19811;BME280;10065;49.632;8.346;2022-07-23T10:43:00;100719.88;;;28.70;49.26
19811;BME280;10065;49.632;8.346;2022-07-23T10:45:30;100719.53;;;28.62;48.29
19811;BME280;10065;49.632;8.346;2022-07-23T10:48:13;100726.06;;;28.61;47.70
19811;BME280;10065;49.632;8.346;2022-07-23T10:50:43;100711.59;;;28.60;47.80
19811;BME280;10065;49.632;8.346;2022-07-23T10:53:13;100714.47;;;28.75;48.07
19811;BME280;10065;49.632;8.346;2022-07-23T10:55:46;100708.56;;;28.89;47.71
19811;BME280;10065;49.632;8.346;2022-07-23T10:58:20;100704.25;;;28.98;46.88
19811;BME280;10065;49.632;8.346;2022-07-23T11:00:48;100704.31;;;29.08;47.19
19811;BME280;10065;49.632;8.346;2022-07-23T11:03:31;100700.78;;;29.12;48.26
19811;BME280;10065;49.632;8.346;2022-07-23T11:06:03;100704.28;;;29.03;48.06
19811;BME280;10065;49.632;8.346;2022-07-23T11:08:31;100705.84;;;28.89;48.23
19811;BME280;10065;49.632;8.346;2022-07-23T11:11:11;100705.16;;;28.71;48.45
19811;BME280;10065;49.632;8.346;2022-07-23T11:13:57;100715.88;;;28.46;48.96
19811;BME280;10065;49.632;8.346;2022-07-23T11:16:25;100716.81;;;28.30;49.43
19811;BME280;10065;49.632;8.346;2022-07-23T11:18:59;100710.94;;;28.16;49.69
19811;BME280;10065;49.632;8.346;2022-07-23T11:21:47;100710.03;;;28.05;49.79
19811;BME280;10065;49.632;8.346;2022-07-23T11:24:17;100712.47;;;28.07;50.13
19811;BME280;10065;49.632;8.346;2022-07-23T11:26:53;100714.44;;;28.12;49.76
19811;BME280;10065;49.632;8.346;2022-07-23T11:29:46;100707.47;;;28.21;50.29
19811;BME280;10065;49.632;8.346;2022-07-23T11:32:28;100701.91;;;28.16;49.51
19811;BME280;10065;49.632;8.346;2022-07-23T11:34:57;100707.84;;;28.07;48.42
19811;BME280;10065;49.632;8.346;2022-07-23T11:37:34;100706.19;;;28.06;49.51
19811;BME280;10065;49.632;8.346;2022-07-23T11:40:06;100708.97;;;28.12;49.63
19811;BME280;10065;49.632;8.346;2022-07-23T11:42:37;100702.00;;;28.21;49.35
19811;BME280;10065;49.632;8.346;2022-07-23T11:45:06;100691.25;;;28.41;49.76
19811;BME280;10065;49.632;8.346;2022-07-23T11:47:35;100692.00;;;28.63;48.36
19811;BME280;10065;49.632;8.346;2022-07-23T11:50:05;100689.34;;;28.73;47.10
19811;BME280;10065;49.632;8.346;2022-07-23T11:52:34;100681.59;;;28.60;47.14
19811;BME280;10065;49.632;8.346;2022-07-23T11:55:04;100685.97;;;28.61;46.79
19811;BME280;10065;49.632;8.346;2022-07-23T11:57:34;100678.88;;;28.60;46.42
19811;BME280;10065;49.632;8.346;2022-07-23T12:00:07;100687.53;;;28.52;46.92
19811;BME280;10065;49.632;8.346;2022-07-23T12:02:38;100683.13;;;28.46;47.38
19811;BME280;10065;49.632;8.346;2022-07-23T12:05:07;100682.00;;;28.42;47.46
19811;BME280;10065;49.632;8.346;2022-07-23T12:07:37;100684.66;;;28.32;47.59
19811;BME280;10065;49.632;8.346;2022-07-23T12:10:11;100676.16;;;28.23;47.05
19811;BME280;10065;49.632;8.346;2022-07-23T12:12:41;100682.66;;;28.22;46.79
19811;BME280;10065;49.632;8.346;2022-07-23T12:15:12;100681.06;;;28.26;46.50
19811;BME280;10065;49.632;8.346;2022-07-23T12:17:41;100684.59;;;28.27;46.19
19811;BME280;10065;49.632;8.346;2022-07-23T12:20:20;100685.19;;;28.29;46.00
19811;BME280;10065;49.632;8.346;2022-07-23T12:22:51;100684.59;;;28.27;46.51
19811;BME280;10065;49.632;8.346;2022-07-23T12:25:21;100673.69;;;28.27;46.11
19811;BME280;10065;49.632;8.346;2022-07-23T12:27:59;100677.56;;;28.31;46.33
19811;BME280;10065;49.632;8.346;2022-07-23T12:30:31;100675.44;;;28.38;46.36
19811;BME280;10065;49.632;8.346;2022-07-23T12:33:01;100679.25;;;28.37;46.51
19811;BME280;10065;49.632;8.346;2022-07-23T12:35:36;100679.50;;;28.35;45.93
19811;BME280;10065;49.632;8.346;2022-07-23T12:38:06;100673.69;;;28.27;46.30
19811;BME280;10065;49.632;8.346;2022-07-23T12:40:36;100679.41;;;28.25;45.34
19811;BME280;10065;49.632;8.346;2022-07-23T12:43:05;100675.72;;;28.15;45.87
19811;BME280;10065;49.632;8.346;2022-07-23T12:45:46;100682.28;;;28.14;45.58
19811;BME280;10065;49.632;8.346;2022-07-23T12:48:20;100686.03;;;28.07;45.75
19811;BME280;10065;49.632;8.346;2022-07-23T12:50:54;100686.00;;;28.02;46.33
19811;BME280;10065;49.632;8.346;2022-07-23T12:53:23;100688.97;;;28.01;45.95
19811;BME280;10065;49.632;8.346;2022-07-23T12:56:07;100687.88;;;27.97;46.92
19811;BME280;10065;49.632;8.346;2022-07-23T12:58:43;100689.69;;;27.91;46.96
19811;BME280;10065;49.632;8.346;2022-07-23T13:01:25;100685.28;;;27.85;46.44
19811;BME280;10065;49.632;8.346;2022-07-23T13:03:58;100677.13;;;27.90;46.49
19811;BME280;10065;49.632;8.346;2022-07-23T13:06:30;100682.94;;;27.99;47.21